createdAt,value
2018-12-18T00:01:19.487Z,68.95
2018-12-18T00:03:51.124Z,70.52
2018-12-18T00:06:21.390Z,69.66
2018-12-18T00:08:51.818Z,69.04
2018-12-18T00:11:22.511Z,68.84
2018-12-18T00:13:53.436Z,68.44
2018-12-18T00:16:23.753Z,68.47
2018-12-18T00:18:54.472Z,68.37
2018-12-18T00:21:25.024Z,68.45
2018-12-18T00:23:56.317Z,67.94
2018-12-18T00:26:26.700Z,68.08
2018-12-18T00:28:57.139Z,68.30
2018-12-18T00:31:27.368Z,68.23
2018-12-18T00:33:57.861Z,67.98
2018-12-18T00:36:28.503Z,68.36
2018-12-18T00:38:59.153Z,68.66
2018-12-18T00:41:29.372Z,69.13
2018-12-18T00:44:00.451Z,69.19
2018-12-18T00:46:31.125Z,68.60
2018-12-18T00:49:01.403Z,68.75
2018-12-18T00:51:31.775Z,68.49
2018-12-18T00:54:03.156Z,68.19
2018-12-18T00:56:33.652Z,68.22
2018-12-18T00:59:04.082Z,68.24
2018-12-18T01:01:34.317Z,68.73
2018-12-18T01:04:05.638Z,68.34
2018-12-18T01:06:36.188Z,67.85
2018-12-18T01:09:08.796Z,67.98
2018-12-18T01:11:39.347Z,68.02
2018-12-18T01:14:10.491Z,68.26
2018-12-18T01:16:41.264Z,68.35
2018-12-18T01:19:12.012Z,68.13
2018-12-18T01:21:42.208Z,68.71
2018-12-18T01:24:12.779Z,69.45
2018-12-18T01:26:43.445Z,69.41
2018-12-18T01:29:14.315Z,70.68
2018-12-18T01:31:44.840Z,70.38
2018-12-18T01:34:15.460Z,69.53
2018-12-18T01:36:46.104Z,69.28
2018-12-18T01:39:16.842Z,69.29
2018-12-18T01:41:47.470Z,69.24
2018-12-18T01:44:18.672Z,69.33
2018-12-18T01:46:49.051Z,68.95
2018-12-18T01:49:19.519Z,69.49
2018-12-18T01:51:50.199Z,69.05
2018-12-18T01:54:21.855Z,69.13
2018-12-18T01:56:52.353Z,69.00
2018-12-18T01:59:22.903Z,69.92
2018-12-18T02:01:53.544Z,69.46
2018-12-18T02:04:24.076Z,69.11
2018-12-18T02:06:54.460Z,69.23
2018-12-18T02:09:25.115Z,70.00
2018-12-18T02:11:55.593Z,71.76
2018-12-18T02:14:26.878Z,71.34
2018-12-18T02:16:57.202Z,71.10
2018-12-18T02:19:28.083Z,71.12
2018-12-18T02:21:58.567Z,72.05
2018-12-18T02:24:30.344Z,70.95
2018-12-18T02:27:00.890Z,71.17
2018-12-18T02:29:31.327Z,72.48
2018-12-18T02:32:01.932Z,73.55
2018-12-18T02:34:33.278Z,73.68
2018-12-18T02:37:03.550Z,73.07
2018-12-18T02:39:34.099Z,73.39
2018-12-18T02:42:04.475Z,73.50
2018-12-18T02:44:36.109Z,73.06
2018-12-18T02:47:06.599Z,72.48
2018-12-18T02:49:37.166Z,72.22
2018-12-18T02:52:07.758Z,71.55
2018-12-18T02:54:39.556Z,71.16
2018-12-18T02:57:09.939Z,70.28
2018-12-18T02:59:40.413Z,69.56
2018-12-18T03:02:10.917Z,69.29
2018-12-18T03:04:41.261Z,71.56
2018-12-18T03:07:11.703Z,72.59
2018-12-18T03:09:42.216Z,72.96
2018-12-18T03:12:12.754Z,72.34
2018-12-18T03:14:43.895Z,72.04
2018-12-18T03:17:14.196Z,71.86
2018-12-18T03:19:44.689Z,71.58
2018-12-18T03:22:15.166Z,71.27
2018-12-18T03:24:45.939Z,72.45
2018-12-18T03:27:16.396Z,73.52
2018-12-18T03:29:46.828Z,73.02
2018-12-18T03:32:21.373Z,73.03
2018-12-18T03:34:52.683Z,71.36
2018-12-18T03:37:23.133Z,71.58
2018-12-18T03:39:53.677Z,70.90
2018-12-18T03:42:24.246Z,70.13
2018-12-18T03:44:55.862Z,69.67
2018-12-18T03:47:26.347Z,69.49
2018-12-18T03:49:57.309Z,70.25
2018-12-18T03:52:27.614Z,71.40
2018-12-18T03:54:58.471Z,71.60
2018-12-18T03:57:28.765Z,71.73
2018-12-18T03:59:59.296Z,70.58
2018-12-18T04:02:30.022Z,70.05
2018-12-18T04:05:00.768Z,71.92
2018-12-18T04:07:31.660Z,74.33
2018-12-18T04:10:02.161Z,75.04
2018-12-18T04:12:32.709Z,76.02
2018-12-18T04:15:03.565Z,76.66
2018-12-18T04:17:33.977Z,75.31
2018-12-18T04:20:04.949Z,71.84
2018-12-18T04:22:35.540Z,69.27
2018-12-18T04:25:06.117Z,69.40
2018-12-18T04:27:36.529Z,69.09
2018-12-18T04:30:07.845Z,70.88
2018-12-18T04:32:38.050Z,70.43
2018-12-18T04:35:08.275Z,69.73
2018-12-18T04:37:38.854Z,70.57
2018-12-18T04:40:09.534Z,70.60
2018-12-18T04:42:40.148Z,71.31
2018-12-18T04:45:11.411Z,69.63
2018-12-18T04:47:41.826Z,68.05
2018-12-18T04:50:12.326Z,71.87
2018-12-18T04:52:42.756Z,72.22
2018-12-18T04:55:14.045Z,71.48
2018-12-18T04:57:44.565Z,72.05
2018-12-18T05:00:15.198Z,70.94
2018-12-18T05:02:45.330Z,69.74
2018-12-18T05:05:16.150Z,70.97
2018-12-18T05:07:46.352Z,72.78
2018-12-18T05:10:16.804Z,73.50
2018-12-18T05:12:46.823Z,72.10
2018-12-18T05:15:18.118Z,73.53
2018-12-18T05:17:48.779Z,73.99
2018-12-18T05:20:19.809Z,73.63
2018-12-18T05:22:50.246Z,75.05
2018-12-18T05:25:21.744Z,75.58
2018-12-18T05:27:51.832Z,75.79
2018-12-18T05:30:22.460Z,75.41
2018-12-18T05:32:53.019Z,72.30
2018-12-18T05:35:24.482Z,71.24
2018-12-18T05:37:54.696Z,70.53
2018-12-18T05:40:25.201Z,70.82
2018-12-18T05:42:55.510Z,68.99
2018-12-18T05:45:26.459Z,69.91
2018-12-18T05:47:56.766Z,69.73
2018-12-18T05:50:27.274Z,70.28
2018-12-18T05:52:57.917Z,70.54
2018-12-18T05:55:29.067Z,69.26
2018-12-18T05:57:59.624Z,69.57
2018-12-18T06:00:30.324Z,70.03
2018-12-18T06:03:01.089Z,69.38
2018-12-18T06:05:31.891Z,71.04
2018-12-18T06:08:02.467Z,68.68
2018-12-18T06:10:32.983Z,69.12
2018-12-18T06:13:03.566Z,68.46
2018-12-18T06:15:34.401Z,68.15
2018-12-18T06:18:05.088Z,68.09
2018-12-18T06:20:35.646Z,67.80
2018-12-18T06:23:06.203Z,68.64
2018-12-18T06:25:36.970Z,69.48
2018-12-18T06:28:07.264Z,69.11
2018-12-18T06:30:37.924Z,69.12
2018-12-18T06:33:08.462Z,69.16
2018-12-18T06:35:39.434Z,68.20
2018-12-18T06:38:09.760Z,68.02
2018-12-18T06:40:40.187Z,67.55
2018-12-18T06:43:10.740Z,68.48
2018-12-18T06:45:42.421Z,67.16
2018-12-18T06:48:12.902Z,67.00
2018-12-18T06:50:43.692Z,67.98
2018-12-18T06:53:14.291Z,69.91
2018-12-18T06:55:45.914Z,70.00
2018-12-18T06:58:16.385Z,67.94
2018-12-18T07:00:46.860Z,68.74
2018-12-18T07:03:17.195Z,69.00
2018-12-18T07:05:47.475Z,68.50
2018-12-18T07:08:17.750Z,68.55
2018-12-18T07:10:48.001Z,68.49
2018-12-18T07:13:18.125Z,67.40
2018-12-18T07:15:49.201Z,70.07
2018-12-18T07:18:19.783Z,65.39
2018-12-18T07:20:50.623Z,64.81
2018-12-18T07:23:21.155Z,65.19
2018-12-18T07:25:53.570Z,65.31
2018-12-18T07:28:23.999Z,65.84
2018-12-18T07:30:54.746Z,65.48
2018-12-18T07:33:25.304Z,66.53
2018-12-18T07:35:56.107Z,65.24
2018-12-18T07:38:26.474Z,64.86
2018-12-18T07:40:57.112Z,64.06
2018-12-18T07:43:27.534Z,66.17
2018-12-18T07:45:58.583Z,67.11
2018-12-18T07:48:28.844Z,66.10
2018-12-18T07:50:59.440Z,66.02
2018-12-18T07:53:29.652Z,66.92
2018-12-18T07:56:00.436Z,67.27
2018-12-18T07:58:30.903Z,68.48
2018-12-18T08:01:01.419Z,69.18
2018-12-18T08:03:32.245Z,65.98
2018-12-18T08:06:03.063Z,66.89
2018-12-18T08:08:33.404Z,69.38
2018-12-18T08:11:03.803Z,69.10
2018-12-18T08:13:34.296Z,68.50
2018-12-18T08:16:05.695Z,64.83
2018-12-18T08:18:35.597Z,65.53
2018-12-18T08:21:06.483Z,64.80
2018-12-18T08:23:37.014Z,67.91
2018-12-18T08:26:07.243Z,65.16
2018-12-18T08:28:37.618Z,66.10
2018-12-18T08:31:07.921Z,68.77
2018-12-18T08:33:38.536Z,64.59
2018-12-18T08:36:09.653Z,64.96
2018-12-18T08:38:40.128Z,65.58
2018-12-18T08:41:10.821Z,65.91
2018-12-18T08:43:41.479Z,67.38
2018-12-18T08:46:12.064Z,64.71
2018-12-18T08:48:42.474Z,64.15
2018-12-18T08:51:13.228Z,65.50
2018-12-18T08:53:43.592Z,64.62
2018-12-18T08:56:14.592Z,63.95
2018-12-18T08:58:45.035Z,64.55
2018-12-18T09:01:15.443Z,63.97
2018-12-18T09:03:45.873Z,63.13
2018-12-18T09:06:17.532Z,63.96
2018-12-18T09:08:48.031Z,64.06
2018-12-18T09:11:18.700Z,67.68
2018-12-18T09:13:49.247Z,63.44
2018-12-18T09:16:25.217Z,63.27
2018-12-18T09:18:55.724Z,64.14
2018-12-18T09:21:26.206Z,63.64
2018-12-18T09:23:56.659Z,63.69
2018-12-18T09:26:27.618Z,62.48
2018-12-18T09:28:57.882Z,62.30
2018-12-18T09:31:28.277Z,61.01
2018-12-18T09:33:58.667Z,61.52
2018-12-18T09:36:29.430Z,61.01
2018-12-18T09:39:04.924Z,60.36
2018-12-18T09:41:40.544Z,59.60
2018-12-18T09:44:15.129Z,60.90
2018-12-18T09:46:46.137Z,60.81
2018-12-18T09:49:16.645Z,60.21
2018-12-18T09:51:47.303Z,60.35
2018-12-18T09:54:17.391Z,59.76
2018-12-18T09:56:52.036Z,61.09
2018-12-18T09:59:22.795Z,60.12
2018-12-18T10:01:53.344Z,58.72
2018-12-18T10:04:23.760Z,59.62
2018-12-18T10:06:55.092Z,61.43
2018-12-18T10:09:25.520Z,59.94
2018-12-18T10:11:55.882Z,60.53
2018-12-18T10:14:26.168Z,59.50
2018-12-18T10:16:57.937Z,58.85
2018-12-18T10:19:28.574Z,60.66
2018-12-18T10:21:59.506Z,60.41
2018-12-18T10:24:29.939Z,60.34
2018-12-18T10:27:01.263Z,60.34
2018-12-18T10:29:31.749Z,60.77
2018-12-18T10:32:02.125Z,59.31
2018-12-18T10:34:32.529Z,60.24
2018-12-18T10:37:03.903Z,61.43
2018-12-18T10:39:34.628Z,60.04
2018-12-18T10:42:05.171Z,61.81
2018-12-18T10:44:35.320Z,64.27
2018-12-18T10:47:06.840Z,62.82
2018-12-18T10:49:37.094Z,61.82
2018-12-18T10:52:07.586Z,62.91
2018-12-18T10:54:37.920Z,66.45
2018-12-18T10:57:09.515Z,64.22
2018-12-18T10:59:39.931Z,62.74
2018-12-18T11:02:11.174Z,62.19
2018-12-18T11:04:41.528Z,63.84
2018-12-18T11:07:12.831Z,63.50
2018-12-18T11:09:43.327Z,66.92
2018-12-18T11:12:16.404Z,65.47
2018-12-18T11:14:46.801Z,67.28
2018-12-18T11:17:17.059Z,65.31
2018-12-18T11:19:47.608Z,64.20
2018-12-18T11:22:18.079Z,67.70
2018-12-18T11:24:48.679Z,68.77
2018-12-18T11:27:19.597Z,65.66
2018-12-18T11:29:49.997Z,65.83
2018-12-18T11:32:20.552Z,67.99
2018-12-18T11:34:50.898Z,68.76
2018-12-18T11:37:22.080Z,67.82
2018-12-18T11:39:52.549Z,67.76
2018-12-18T11:42:22.889Z,66.46
2018-12-18T11:44:53.320Z,68.36
2018-12-18T11:47:24.259Z,67.63
2018-12-18T11:49:54.755Z,67.41
2018-12-18T11:52:25.360Z,66.69
2018-12-18T11:54:55.714Z,70.31
2018-12-18T11:57:26.501Z,66.93
2018-12-18T11:59:57.184Z,67.45
2018-12-18T12:02:27.607Z,66.92
2018-12-18T12:04:58.132Z,67.00
2018-12-18T12:07:28.843Z,67.91
2018-12-18T12:09:59.079Z,66.60
2018-12-18T12:12:29.699Z,69.32
2018-12-18T12:15:00.541Z,66.85
2018-12-18T12:17:31.615Z,66.57
2018-12-18T12:20:02.138Z,66.96
2018-12-18T12:22:32.483Z,66.18
2018-12-18T12:25:03.164Z,66.28
2018-12-18T12:27:36.573Z,66.44
2018-12-18T12:30:08.441Z,66.43
2018-12-18T12:32:38.869Z,68.00
2018-12-18T12:35:09.500Z,65.04
2018-12-18T12:37:40.733Z,65.03
2018-12-18T12:40:11.364Z,67.77
2018-12-18T12:42:41.866Z,64.57
2018-12-18T12:45:12.316Z,65.63
2018-12-18T12:47:45.876Z,65.46
2018-12-18T12:50:16.362Z,64.78
2018-12-18T12:52:46.772Z,66.59
2018-12-18T12:55:17.097Z,65.47
2018-12-18T12:57:47.825Z,65.55
2018-12-18T13:00:17.956Z,67.83
2018-12-18T13:02:48.376Z,64.21
2018-12-18T13:05:18.908Z,64.91
2018-12-18T13:07:49.444Z,65.80
2018-12-18T13:10:19.974Z,65.05
2018-12-18T13:12:50.319Z,64.84
2018-12-18T13:15:20.923Z,65.59
2018-12-18T13:17:52.184Z,68.64
2018-12-18T13:20:22.595Z,66.21
2018-12-18T13:22:53.373Z,65.63
2018-12-18T13:25:23.828Z,65.03
2018-12-18T13:27:54.795Z,65.53
2018-12-18T13:30:25.158Z,64.91
2018-12-18T13:32:55.538Z,65.15
2018-12-18T13:35:25.987Z,66.92
2018-12-18T13:37:56.703Z,65.32
2018-12-18T13:40:27.361Z,64.81
2018-12-18T13:42:57.971Z,65.44
2018-12-18T13:45:28.513Z,65.45
2018-12-18T13:47:59.896Z,67.84
2018-12-18T13:50:30.491Z,64.75
2018-12-18T13:53:00.822Z,65.14
2018-12-18T13:55:36.602Z,64.27
2018-12-18T13:58:04.907Z,69.08
2018-12-18T14:00:35.469Z,64.65
2018-12-18T14:03:05.982Z,64.37
2018-12-18T14:05:36.636Z,65.10
2018-12-18T14:08:07.938Z,64.60
2018-12-18T14:10:38.684Z,64.17
2018-12-18T14:13:08.847Z,64.22
2018-12-18T14:15:39.228Z,64.34
2018-12-18T14:18:09.977Z,65.01
2018-12-18T14:20:40.332Z,66.11
2018-12-18T14:23:11.182Z,66.60
2018-12-18T14:25:41.751Z,65.86
2018-12-18T14:28:12.229Z,65.64
2018-12-18T14:30:42.680Z,68.27
2018-12-18T14:33:13.098Z,65.90
2018-12-18T14:35:43.501Z,67.41
2018-12-18T14:38:14.295Z,67.78
2018-12-18T14:40:44.846Z,67.80
2018-12-18T14:43:15.572Z,67.79
2018-12-18T14:45:46.200Z,68.04
2018-12-18T14:48:17.761Z,67.72
2018-12-18T14:50:48.513Z,67.86
2018-12-18T14:53:19.020Z,67.72
2018-12-18T14:55:49.744Z,67.57
2018-12-18T14:58:20.625Z,69.18
2018-12-18T15:00:51.058Z,70.63
2018-12-18T15:03:21.448Z,69.17
2018-12-18T15:05:51.842Z,69.86
2018-12-18T15:08:23.095Z,70.15
2018-12-18T15:10:53.440Z,70.09
2018-12-18T15:13:23.889Z,69.93
2018-12-18T15:15:53.968Z,69.83
2018-12-18T15:18:25.266Z,69.62
2018-12-18T15:20:55.752Z,68.90
2018-12-18T15:23:26.495Z,68.66
2018-12-18T15:25:57.049Z,68.75
2018-12-18T15:28:28.933Z,68.80
2018-12-18T15:30:59.595Z,69.63
2018-12-18T15:33:30.028Z,69.39
2018-12-18T15:36:00.612Z,70.09
2018-12-18T15:38:31.391Z,68.65
2018-12-18T15:41:01.779Z,68.61
2018-12-18T15:43:32.201Z,69.82
2018-12-18T15:46:02.689Z,69.89
2018-12-18T15:48:33.116Z,69.27
2018-12-18T15:51:03.829Z,67.35
2018-12-18T15:53:34.257Z,67.77
2018-12-18T15:56:04.554Z,68.40
2018-12-18T15:58:35.186Z,67.75
2018-12-18T16:01:05.597Z,67.07
2018-12-18T16:03:36.231Z,67.23
2018-12-18T16:06:06.670Z,66.61
2018-12-18T16:08:37.731Z,68.18
2018-12-18T16:11:08.372Z,68.07
2018-12-18T16:13:39.004Z,68.04
2018-12-18T16:16:09.831Z,66.96
2018-12-18T16:18:40.478Z,65.81
2018-12-18T16:21:11.110Z,65.96
2018-12-18T16:23:41.862Z,65.15
2018-12-18T16:26:12.513Z,65.26
2018-12-18T16:28:43.747Z,63.46
2018-12-18T16:31:14.097Z,63.78
2018-12-18T16:33:44.179Z,64.13
2018-12-18T16:36:14.490Z,63.31
2018-12-18T16:38:46.121Z,63.09
2018-12-18T16:41:16.543Z,63.37
2018-12-18T16:43:47.049Z,62.80
2018-12-18T16:46:17.315Z,66.84
2018-12-18T16:48:47.909Z,62.29
2018-12-18T16:51:18.751Z,62.84
2018-12-18T16:53:49.294Z,63.68
2018-12-18T16:56:19.926Z,60.60
2018-12-18T16:58:50.685Z,60.99
2018-12-18T17:01:21.377Z,61.22
2018-12-18T17:03:52.031Z,59.98
2018-12-18T17:06:22.677Z,60.02
2018-12-18T17:08:53.882Z,60.60
2018-12-18T17:11:24.512Z,61.10
2018-12-18T17:13:54.741Z,62.03
2018-12-18T17:16:25.184Z,62.65
2018-12-18T17:18:55.800Z,61.87
2018-12-18T17:21:26.557Z,63.41
2018-12-18T17:23:57.072Z,63.83
2018-12-18T17:26:27.600Z,62.08
2018-12-18T17:28:58.456Z,60.87
2018-12-18T17:31:28.860Z,61.50
2018-12-18T17:33:59.507Z,61.58
2018-12-18T17:36:29.954Z,60.90
2018-12-18T17:39:01.460Z,61.09
2018-12-18T17:41:31.831Z,60.47
2018-12-18T17:44:02.101Z,60.96
2018-12-18T17:46:32.551Z,61.40
2018-12-18T17:49:03.202Z,61.26
2018-12-18T17:51:33.592Z,60.95
2018-12-18T17:54:04.238Z,60.85
2018-12-18T17:56:34.792Z,60.68
2018-12-18T17:59:05.822Z,60.18
2018-12-18T18:01:36.318Z,62.04
2018-12-18T18:04:06.860Z,59.24
2018-12-18T18:06:37.586Z,58.99
2018-12-18T18:09:10.056Z,59.24
2018-12-18T18:11:40.381Z,58.66
2018-12-18T18:14:11.097Z,58.49
2018-12-18T18:16:41.649Z,56.74
2018-12-18T18:19:12.292Z,58.16
2018-12-18T18:21:42.819Z,56.96
2018-12-18T18:24:13.067Z,57.75
2018-12-18T18:26:43.196Z,56.62
2018-12-18T18:29:13.490Z,57.29
2018-12-18T18:35:01.720Z,57.96
2018-12-18T18:37:32.139Z,57.46
2018-12-18T18:40:02.253Z,56.40
2018-12-18T18:42:32.601Z,56.88
2018-12-18T18:45:02.917Z,57.88
2018-12-18T18:47:33.357Z,58.51
2018-12-18T18:50:04.177Z,56.79
2018-12-18T18:52:35.725Z,56.51
2018-12-18T18:55:06.575Z,56.04
2018-12-18T18:57:36.907Z,57.61
2018-12-18T19:00:08.368Z,56.76
2018-12-18T19:02:39.882Z,63.39
2018-12-18T19:05:10.191Z,56.14
2018-12-18T19:07:40.948Z,56.50
2018-12-18T19:10:11.802Z,62.50
2018-12-18T19:12:43.025Z,56.45
2018-12-18T19:15:13.695Z,57.87
2018-12-18T19:17:43.963Z,56.61
2018-12-18T19:20:14.238Z,56.26
2018-12-18T19:22:45.369Z,55.99
2018-12-18T19:25:16.101Z,59.82
2018-12-18T19:27:46.462Z,57.43
2018-12-18T19:30:16.939Z,55.94
2018-12-18T19:32:47.881Z,56.49
2018-12-18T19:35:18.190Z,55.46
2018-12-18T19:37:48.542Z,57.75
2018-12-18T19:40:19.026Z,56.75
2018-12-18T19:42:49.984Z,55.46
2018-12-18T19:45:20.626Z,55.98
2018-12-18T19:47:51.073Z,56.96
2018-12-18T19:50:21.609Z,56.11
2018-12-18T19:52:52.509Z,55.32
2018-12-18T19:55:23.038Z,55.76
2018-12-18T19:57:53.674Z,56.69
2018-12-18T20:00:24.238Z,55.14
2018-12-18T20:02:55.443Z,54.52
2018-12-18T20:05:25.996Z,54.03
2018-12-18T20:07:56.551Z,54.65
2018-12-18T20:10:27.167Z,55.64
2018-12-18T20:13:00.659Z,54.79
2018-12-18T20:15:30.903Z,54.55
2018-12-18T20:18:01.118Z,54.08
2018-12-18T20:20:31.724Z,54.82
2018-12-18T20:23:03.340Z,54.89
2018-12-18T20:25:33.770Z,54.04
2018-12-18T20:28:04.220Z,54.64
2018-12-18T20:30:34.515Z,54.38
2018-12-18T20:33:06.016Z,53.97
2018-12-18T20:35:36.216Z,53.96
2018-12-18T20:38:06.525Z,55.54
2018-12-18T20:40:37.048Z,57.12
2018-12-18T20:43:07.474Z,56.60
2018-12-18T20:45:38.235Z,55.18
2018-12-18T20:48:08.856Z,54.30
2018-12-18T20:50:39.300Z,54.54
2018-12-18T20:53:10.208Z,56.81
2018-12-18T20:55:40.799Z,55.50
2018-12-18T20:58:11.280Z,54.98
2018-12-18T21:00:41.717Z,62.33
2018-12-18T21:03:12.717Z,54.78
2018-12-18T21:05:43.249Z,56.59
2018-12-18T21:08:13.684Z,55.95
2018-12-18T21:10:44.080Z,55.18
2018-12-18T21:13:20.137Z,55.25
2018-12-18T21:15:50.615Z,55.41
2018-12-18T21:18:20.792Z,54.95
2018-12-18T21:20:51.115Z,55.02
2018-12-18T21:23:22.515Z,54.93
2018-12-18T21:25:53.672Z,54.74
2018-12-18T21:28:24.054Z,54.73
2018-12-18T21:30:54.606Z,55.81
2018-12-18T21:33:25.144Z,55.74
2018-12-18T21:35:55.699Z,54.99
2018-12-18T21:38:30.209Z,56.09
2018-12-18T21:40:58.606Z,54.74
2018-12-18T21:43:30.216Z,54.63
2018-12-18T21:46:00.846Z,54.97
2018-12-18T21:48:31.419Z,54.24
2018-12-18T21:51:01.809Z,55.75
2018-12-18T21:53:33.138Z,56.28
2018-12-18T21:56:03.679Z,56.11
2018-12-18T21:58:34.186Z,55.92
2018-12-18T22:01:04.611Z,55.63
2018-12-18T22:03:35.364Z,57.37
2018-12-18T22:06:05.671Z,55.58
2018-12-18T22:08:36.912Z,62.21
2018-12-18T22:11:07.647Z,63.02
2018-12-18T22:13:39.132Z,58.12
2018-12-18T22:16:09.210Z,56.41
2018-12-18T22:18:39.850Z,56.95
2018-12-18T22:21:10.398Z,62.21
2018-12-18T22:23:41.216Z,55.30
2018-12-18T22:26:11.452Z,63.97
2018-12-18T22:28:42.003Z,57.62
2018-12-18T22:31:12.397Z,62.04
2018-12-18T22:33:43.228Z,65.99
2018-12-18T22:36:13.592Z,58.29
2018-12-18T22:38:43.921Z,60.48
2018-12-18T22:41:14.572Z,64.54
2018-12-18T22:43:45.873Z,56.99
2018-12-18T22:46:16.255Z,57.50
2018-12-18T22:48:46.568Z,58.82
2018-12-18T22:51:17.010Z,54.57
2018-12-18T22:53:47.783Z,54.97
2018-12-18T22:56:18.107Z,57.55
2018-12-18T22:58:48.529Z,57.77
2018-12-18T23:01:51.797Z,56.40
2018-12-18T23:04:22.394Z,63.49
2018-12-18T23:06:52.558Z,59.24
2018-12-18T23:09:22.875Z,56.39
2018-12-18T23:11:53.423Z,61.20
2018-12-18T23:14:23.852Z,56.95
2018-12-18T23:16:54.228Z,58.12
2018-12-18T23:19:24.845Z,63.55
2018-12-18T23:21:56.162Z,56.92
2018-12-18T23:24:26.559Z,61.16
2018-12-18T23:26:57.378Z,55.08
2018-12-18T23:29:27.877Z,60.19
2018-12-18T23:31:58.619Z,55.97
2018-12-18T23:34:33.012Z,56.62
2018-12-18T23:37:00.994Z,58.86
2018-12-18T23:39:31.605Z,56.54
2018-12-18T23:42:02.466Z,55.57
2018-12-18T23:44:32.817Z,56.71
2018-12-18T23:47:03.154Z,56.59
2018-12-18T23:49:33.525Z,56.54
2018-12-18T23:52:05.125Z,56.67
2018-12-18T23:54:35.801Z,59.07
2018-12-18T23:57:06.322Z,57.79
2018-12-18T23:59:36.950Z,59.55
